ZMUB/ULN METAR and TAF weather

Enter ICAO airport designator
Station Type Date Time Source
ZMUB METAR 2018/12/19 03:30 UTC NOAA

ZMUB 190330Z 00000MPS 3000NW FU NSC M18/M21 Q1015 NOSIG RMK QFE654.5 79 NW MO


Station Type Date Time Source
ZMUB Decoded METAR 2018/12/19 03:30 UTC NOAA

Ulan-Bator, Mongolia (ZMUB) 47-51N 106-46E
Dec 18, 2018 - 10:30 PM EST / 2018.12.19 0330 UTC
Wind: Calm:0
Visibility: 1 mile(s):0
Weather: smoke
Temperature: 0 F (-18 C)
Dew Point: -5 F (-21 C)
Relative Humidity: 77%
Pressure (altimeter): 29.97 in. Hg (1015 hPa)
ob: ZMUB 190330Z 00000MPS 3000NW FU NSC M18/M21 Q1015 NOSIG RMK QFE654.5 79 NW MO
cycle: 3

Station Type Date Time Source
ZMUB TAF 2018/12/18 18:33 UTC NOAA

TAF TAF ZMUB 181630Z 1818/1924 VRB02MPS 6000 SCT100 TNM26/1823Z TXM11/1907Z
BECMG 1900/1902 4000 FU
BECMG 1905/1907 6000


Example: see airport list